sensor_id;sensor_type;location;lat;lon;timestamp;temperature;humidity
23385;DHT22;11865;45.394;10.978;2023-08-08T00:00:21;16.50;94.80
23385;DHT22;11865;45.394;10.978;2023-08-08T00:02:49;16.30;95.40
23385;DHT22;11865;45.394;10.978;2023-08-08T00:05:16;16.10;93.90
23385;DHT22;11865;45.394;10.978;2023-08-08T00:07:44;16.00;96.00
23385;DHT22;11865;45.394;10.978;2023-08-08T00:10:11;15.90;96.20
23385;DHT22;11865;45.394;10.978;2023-08-08T00:12:38;16.00;94.60
23385;DHT22;11865;45.394;10.978;2023-08-08T00:15:06;16.70;90.00
23385;DHT22;11865;45.394;10.978;2023-08-08T00:17:34;17.20;85.80
23385;DHT22;11865;45.394;10.978;2023-08-08T00:20:02;17.50;84.70
23385;DHT22;11865;45.394;10.978;2023-08-08T00:22:30;17.70;84.00
23385;DHT22;11865;45.394;10.978;2023-08-08T00:24:58;17.70;84.80
23385;DHT22;11865;45.394;10.978;2023-08-08T00:27:25;17.80;82.70
23385;DHT22;11865;45.394;10.978;2023-08-08T00:29:53;17.80;84.30
23385;DHT22;11865;45.394;10.978;2023-08-08T00:32:22;17.70;88.50
23385;DHT22;11865;45.394;10.978;2023-08-08T00:34:50;17.70;82.70
23385;DHT22;11865;45.394;10.978;2023-08-08T00:37:17;17.60;89.10
23385;DHT22;11865;45.394;10.978;2023-08-08T00:39:45;17.30;91.10
23385;DHT22;11865;45.394;10.978;2023-08-08T00:42:13;16.90;91.10
23385;DHT22;11865;45.394;10.978;2023-08-08T00:44:40;16.70;92.30
23385;DHT22;11865;45.394;10.978;2023-08-08T00:47:09;16.50;93.40
23385;DHT22;11865;45.394;10.978;2023-08-08T00:49:37;16.40;92.90
23385;DHT22;11865;45.394;10.978;2023-08-08T00:52:06;16.40;93.70
23385;DHT22;11865;45.394;10.978;2023-08-08T00:54:34;16.90;88.70
23385;DHT22;11865;45.394;10.978;2023-08-08T00:57:02;16.80;90.90
23385;DHT22;11865;45.394;10.978;2023-08-08T00:59:30;17.10;87.20
23385;DHT22;11865;45.394;10.978;2023-08-08T01:01:58;17.20;87.30
23385;DHT22;11865;45.394;10.978;2023-08-08T01:04:26;17.30;88.40
23385;DHT22;11865;45.394;10.978;2023-08-08T01:07:25;17.40;86.50
23385;DHT22;11865;45.394;10.978;2023-08-08T01:12:44;17.10;91.60
23385;DHT22;11865;45.394;10.978;2023-08-08T01:15:13;16.90;89.20
23385;DHT22;11865;45.394;10.978;2023-08-08T01:17:42;17.00;91.50
23385;DHT22;11865;45.394;10.978;2023-08-08T01:20:11;17.10;88.40
23385;DHT22;11865;45.394;10.978;2023-08-08T01:25:39;16.50;93.40
23385;DHT22;11865;45.394;10.978;2023-08-08T01:28:07;16.60;93.10
23385;DHT22;11865;45.394;10.978;2023-08-08T01:30:35;16.50;94.70
23385;DHT22;11865;45.394;10.978;2023-08-08T01:33:04;16.40;93.20
23385;DHT22;11865;45.394;10.978;2023-08-08T01:35:36;16.50;90.60
23385;DHT22;11865;45.394;10.978;2023-08-08T01:38:28;16.70;92.60
23385;DHT22;11865;45.394;10.978;2023-08-08T01:40:59;16.90;86.30
23385;DHT22;11865;45.394;10.978;2023-08-08T01:43:28;17.30;84.70
23385;DHT22;11865;45.394;10.978;2023-08-08T01:45:59;17.40;89.70
23385;DHT22;11865;45.394;10.978;2023-08-08T01:48:28;17.30;91.90
23385;DHT22;11865;45.394;10.978;2023-08-08T01:50:55;17.00;92.50
23385;DHT22;11865;45.394;10.978;2023-08-08T01:53:23;16.90;89.70
23385;DHT22;11865;45.394;10.978;2023-08-08T01:55:51;17.10;87.20
23385;DHT22;11865;45.394;10.978;2023-08-08T01:58:19;17.20;90.00
23385;DHT22;11865;45.394;10.978;2023-08-08T02:00:47;17.20;84.40
23385;DHT22;11865;45.394;10.978;2023-08-08T02:03:14;17.40;83.40
23385;DHT22;11865;45.394;10.978;2023-08-08T02:05:43;17.30;92.30
23385;DHT22;11865;45.394;10.978;2023-08-08T02:08:10;16.80;92.50
23385;DHT22;11865;45.394;10.978;2023-08-08T02:10:38;16.60;91.20
23385;DHT22;11865;45.394;10.978;2023-08-08T02:13:06;16.60;92.30
23385;DHT22;11865;45.394;10.978;2023-08-08T02:15:33;16.40;91.70
23385;DHT22;11865;45.394;10.978;2023-08-08T02:18:00;16.50;90.60
23385;DHT22;11865;45.394;10.978;2023-08-08T02:20:29;16.50;93.00
23385;DHT22;11865;45.394;10.978;2023-08-08T02:22:57;16.60;90.60
23385;DHT22;11865;45.394;10.978;2023-08-08T02:25:25;16.60;91.30
23385;DHT22;11865;45.394;10.978;2023-08-08T02:27:53;16.50;93.00
23385;DHT22;11865;45.394;10.978;2023-08-08T02:30:20;16.40;93.90
23385;DHT22;11865;45.394;10.978;2023-08-08T02:32:48;16.10;94.60
23385;DHT22;11865;45.394;10.978;2023-08-08T02:35:15;16.00;94.20
23385;DHT22;11865;45.394;10.978;2023-08-08T02:37:43;15.90;94.20
23385;DHT22;11865;45.394;10.978;2023-08-08T02:40:10;15.80;94.00
23385;DHT22;11865;45.394;10.978;2023-08-08T02:42:38;15.70;94.70
23385;DHT22;11865;45.394;10.978;2023-08-08T02:45:08;15.70;93.50
23385;DHT22;11865;45.394;10.978;2023-08-08T02:47:35;15.90;90.20
23385;DHT22;11865;45.394;10.978;2023-08-08T02:50:03;16.30;93.00
23385;DHT22;11865;45.394;10.978;2023-08-08T02:52:32;16.40;88.60
23385;DHT22;11865;45.394;10.978;2023-08-08T02:54:59;16.30;94.70
23385;DHT22;11865;45.394;10.978;2023-08-08T02:57:27;16.20;94.70
23385;DHT22;11865;45.394;10.978;2023-08-08T02:59:55;16.20;94.10
23385;DHT22;11865;45.394;10.978;2023-08-08T03:02:23;16.10;95.00
23385;DHT22;11865;45.394;10.978;2023-08-08T03:04:52;16.20;94.70
23385;DHT22;11865;45.394;10.978;2023-08-08T03:07:22;16.30;94.50
23385;DHT22;11865;45.394;10.978;2023-08-08T03:09:50;16.50;87.50
23385;DHT22;11865;45.394;10.978;2023-08-08T03:12:17;17.10;85.10
23385;DHT22;11865;45.394;10.978;2023-08-08T03:14:45;17.20;84.40
23385;DHT22;11865;45.394;10.978;2023-08-08T03:17:12;17.20;84.20
23385;DHT22;11865;45.394;10.978;2023-08-08T03:19:41;17.30;84.50
23385;DHT22;11865;45.394;10.978;2023-08-08T03:22:09;17.20;92.70
23385;DHT22;11865;45.394;10.978;2023-08-08T03:24:38;16.70;95.20
23385;DHT22;11865;45.394;10.978;2023-08-08T03:27:05;16.40;95.80
23385;DHT22;11865;45.394;10.978;2023-08-08T03:29:34;16.20;96.30
23385;DHT22;11865;45.394;10.978;2023-08-08T03:32:01;16.10;96.10
23385;DHT22;11865;45.394;10.978;2023-08-08T03:34:32;15.90;95.70
23385;DHT22;11865;45.394;10.978;2023-08-08T03:37:00;15.90;95.70
23385;DHT22;11865;45.394;10.978;2023-08-08T03:39:27;15.80;95.10
23385;DHT22;11865;45.394;10.978;2023-08-08T03:41:55;15.80;95.70
23385;DHT22;11865;45.394;10.978;2023-08-08T03:44:23;15.90;94.80
23385;DHT22;11865;45.394;10.978;2023-08-08T03:46:51;16.00;94.90
23385;DHT22;11865;45.394;10.978;2023-08-08T03:49:25;16.10;97.00
23385;DHT22;11865;45.394;10.978;2023-08-08T03:51:53;16.00;96.90
23385;DHT22;11865;45.394;10.978;2023-08-08T03:54:20;15.90;96.00
23385;DHT22;11865;45.394;10.978;2023-08-08T03:56:49;15.80;96.40
23385;DHT22;11865;45.394;10.978;2023-08-08T03:59:16;15.80;97.40
23385;DHT22;11865;45.394;10.978;2023-08-08T04:01:44;15.90;97.50
23385;DHT22;11865;45.394;10.978;2023-08-08T04:04:12;16.30;91.30
23385;DHT22;11865;45.394;10.978;2023-08-08T04:06:39;16.60;91.90
23385;DHT22;11865;45.394;10.978;2023-08-08T04:09:07;16.90;87.30
23385;DHT22;11865;45.394;10.978;2023-08-08T04:11:35;16.90;94.70
23385;DHT22;11865;45.394;10.978;2023-08-08T04:14:03;16.60;95.30
23385;DHT22;11865;45.394;10.978;2023-08-08T04:16:30;16.90;87.40
23385;DHT22;11865;45.394;10.978;2023-08-08T04:18:59;17.10;94.90
23385;DHT22;11865;45.394;10.978;2023-08-08T04:21:26;17.10;90.20
23385;DHT22;11865;45.394;10.978;2023-08-08T04:23:56;17.40;88.10
23385;DHT22;11865;45.394;10.978;2023-08-08T04:26:23;17.80;83.00
23385;DHT22;11865;45.394;10.978;2023-08-08T04:28:51;18.10;79.30
23385;DHT22;11865;45.394;10.978;2023-08-08T04:31:19;18.40;78.60
23385;DHT22;11865;45.394;10.978;2023-08-08T04:33:47;18.50;78.30
23385;DHT22;11865;45.394;10.978;2023-08-08T04:36:14;18.50;78.40
23385;DHT22;11865;45.394;10.978;2023-08-08T04:38:42;18.60;78.30
23385;DHT22;11865;45.394;10.978;2023-08-08T04:41:10;18.70;81.40
23385;DHT22;11865;45.394;10.978;2023-08-08T04:43:37;18.30;92.60
23385;DHT22;11865;45.394;10.978;2023-08-08T04:46:05;17.70;94.00
23385;DHT22;11865;45.394;10.978;2023-08-08T04:48:33;17.40;93.90
23385;DHT22;11865;45.394;10.978;2023-08-08T04:51:00;17.30;94.20
23385;DHT22;11865;45.394;10.978;2023-08-08T04:53:28;17.70;89.10
23385;DHT22;11865;45.394;10.978;2023-08-08T04:55:55;17.80;93.20
23385;DHT22;11865;45.394;10.978;2023-08-08T04:58:23;17.40;94.40
23385;DHT22;11865;45.394;10.978;2023-08-08T05:00:50;17.50;93.70
23385;DHT22;11865;45.394;10.978;2023-08-08T05:03:18;17.50;94.40
23385;DHT22;11865;45.394;10.978;2023-08-08T05:05:46;17.60;93.70
23385;DHT22;11865;45.394;10.978;2023-08-08T05:08:14;17.70;92.60
23385;DHT22;11865;45.394;10.978;2023-08-08T05:10:41;17.80;93.00
23385;DHT22;11865;45.394;10.978;2023-08-08T05:13:09;17.90;95.10
23385;DHT22;11865;45.394;10.978;2023-08-08T05:15:37;18.00;94.00
23385;DHT22;11865;45.394;10.978;2023-08-08T05:18:05;18.20;93.40
23385;DHT22;11865;45.394;10.978;2023-08-08T05:20:33;18.40;92.30
23385;DHT22;11865;45.394;10.978;2023-08-08T05:23:00;18.60;92.00
23385;DHT22;11865;45.394;10.978;2023-08-08T05:25:28;18.60;93.70
23385;DHT22;11865;45.394;10.978;2023-08-08T05:27:55;19.00;93.70
23385;DHT22;11865;45.394;10.978;2023-08-08T05:30:23;19.20;92.40
23385;DHT22;11865;45.394;10.978;2023-08-08T05:32:51;19.50;92.00
23385;DHT22;11865;45.394;10.978;2023-08-08T05:35:18;20.10;88.00
23385;DHT22;11865;45.394;10.978;2023-08-08T05:37:46;20.40;87.70
23385;DHT22;11865;45.394;10.978;2023-08-08T05:40:13;21.10;83.70
23385;DHT22;11865;45.394;10.978;2023-08-08T05:42:41;21.50;85.00
23385;DHT22;11865;45.394;10.978;2023-08-08T05:45:09;22.00;80.50
23385;DHT22;11865;45.394;10.978;2023-08-08T05:47:36;21.80;84.80
23385;DHT22;11865;45.394;10.978;2023-08-08T05:50:05;21.40;87.60
23385;DHT22;11865;45.394;10.978;2023-08-08T05:52:32;21.00;89.90
23385;DHT22;11865;45.394;10.978;2023-08-08T05:55:00;20.70;88.30
23385;DHT22;11865;45.394;10.978;2023-08-08T05:57:28;20.50;90.80
23385;DHT22;11865;45.394;10.978;2023-08-08T05:59:56;20.30;91.60
23385;DHT22;11865;45.394;10.978;2023-08-08T06:02:24;20.20;93.00
23385;DHT22;11865;45.394;10.978;2023-08-08T06:04:51;20.40;92.20
23385;DHT22;11865;45.394;10.978;2023-08-08T06:07:19;20.40;93.10
23385;DHT22;11865;45.394;10.978;2023-08-08T06:09:46;20.60;92.10
23385;DHT22;11865;45.394;10.978;2023-08-08T06:12:14;20.80;93.10
23385;DHT22;11865;45.394;10.978;2023-08-08T06:14:41;20.80;93.40
23385;DHT22;11865;45.394;10.978;2023-08-08T06:17:09;21.20;92.30
23385;DHT22;11865;45.394;10.978;2023-08-08T06:19:37;23.50;90.00
23385;DHT22;11865;45.394;10.978;2023-08-08T06:22:04;23.90;81.60
23385;DHT22;11865;45.394;10.978;2023-08-08T06:24:32;24.70;82.10
23385;DHT22;11865;45.394;10.978;2023-08-08T06:27:00;26.10;72.80
23385;DHT22;11865;45.394;10.978;2023-08-08T06:29:27;26.70;69.00
23385;DHT22;11865;45.394;10.978;2023-08-08T06:31:55;26.40;64.40
23385;DHT22;11865;45.394;10.978;2023-08-08T06:34:23;27.70;62.40
23385;DHT22;11865;45.394;10.978;2023-08-08T06:36:50;27.70;60.40
23385;DHT22;11865;45.394;10.978;2023-08-08T06:39:18;27.00;59.10
23385;DHT22;11865;45.394;10.978;2023-08-08T06:41:48;26.70;60.00
23385;DHT22;11865;45.394;10.978;2023-08-08T06:44:20;25.20;62.90
23385;DHT22;11865;45.394;10.978;2023-08-08T06:46:48;24.20;66.60
23385;DHT22;11865;45.394;10.978;2023-08-08T06:49:16;23.50;68.60
23385;DHT22;11865;45.394;10.978;2023-08-08T06:51:43;23.30;69.30
23385;DHT22;11865;45.394;10.978;2023-08-08T06:54:11;24.30;66.90
23385;DHT22;11865;45.394;10.978;2023-08-08T06:56:38;26.00;60.70
23385;DHT22;11865;45.394;10.978;2023-08-08T06:59:06;28.00;60.20
23385;DHT22;11865;45.394;10.978;2023-08-08T07:01:33;27.00;56.70
23385;DHT22;11865;45.394;10.978;2023-08-08T07:04:01;27.30;58.20
23385;DHT22;11865;45.394;10.978;2023-08-08T07:06:29;26.70;58.70
23385;DHT22;11865;45.394;10.978;2023-08-08T07:08:56;27.60;57.60
23385;DHT22;11865;45.394;10.978;2023-08-08T07:11:24;28.10;57.20
23385;DHT22;11865;45.394;10.978;2023-08-08T07:13:52;27.60;56.00
23385;DHT22;11865;45.394;10.978;2023-08-08T07:16:19;27.60;57.80
23385;DHT22;11865;45.394;10.978;2023-08-08T07:18:47;27.10;58.40
23385;DHT22;11865;45.394;10.978;2023-08-08T07:21:16;27.10;57.10
23385;DHT22;11865;45.394;10.978;2023-08-08T07:23:44;27.00;58.20
23385;DHT22;11865;45.394;10.978;2023-08-08T07:26:12;27.10;57.40
23385;DHT22;11865;45.394;10.978;2023-08-08T07:28:39;27.80;56.20
23385;DHT22;11865;45.394;10.978;2023-08-08T07:31:07;26.30;56.50
23385;DHT22;11865;45.394;10.978;2023-08-08T07:33:34;27.00;57.40
23385;DHT22;11865;45.394;10.978;2023-08-08T07:36:02;27.30;57.40
23385;DHT22;11865;45.394;10.978;2023-08-08T07:38:29;26.80;57.40
23385;DHT22;11865;45.394;10.978;2023-08-08T07:40:57;27.40;57.50
23385;DHT22;11865;45.394;10.978;2023-08-08T07:43:24;27.30;57.80
23385;DHT22;11865;45.394;10.978;2023-08-08T07:45:52;26.10;57.40
23385;DHT22;11865;45.394;10.978;2023-08-08T07:48:19;26.60;56.20
23385;DHT22;11865;45.394;10.978;2023-08-08T07:50:47;27.00;55.90
23385;DHT22;11865;45.394;10.978;2023-08-08T07:53:15;27.30;56.40
23385;DHT22;11865;45.394;10.978;2023-08-08T07:55:42;26.90;56.60
23385;DHT22;11865;45.394;10.978;2023-08-08T07:58:10;26.80;56.60
23385;DHT22;11865;45.394;10.978;2023-08-08T08:00:37;27.80;56.20
23385;DHT22;11865;45.394;10.978;2023-08-08T08:03:05;27.00;55.60
23385;DHT22;11865;45.394;10.978;2023-08-08T08:05:33;28.00;55.40
23385;DHT22;11865;45.394;10.978;2023-08-08T08:08:02;27.50;56.30
23385;DHT22;11865;45.394;10.978;2023-08-08T08:10:29;27.60;55.40
23385;DHT22;11865;45.394;10.978;2023-08-08T08:12:57;28.00;56.60
23385;DHT22;11865;45.394;10.978;2023-08-08T08:15:26;27.20;56.70
23385;DHT22;11865;45.394;10.978;2023-08-08T08:17:53;26.70;58.20
23385;DHT22;11865;45.394;10.978;2023-08-08T08:20:21;26.80;58.80
23385;DHT22;11865;45.394;10.978;2023-08-08T08:22:49;26.60;59.90
23385;DHT22;11865;45.394;10.978;2023-08-08T08:25:16;27.00;59.20
23385;DHT22;11865;45.394;10.978;2023-08-08T08:27:44;26.20;60.10
23385;DHT22;11865;45.394;10.978;2023-08-08T08:30:12;25.70;61.90
23385;DHT22;11865;45.394;10.978;2023-08-08T08:32:41;25.80;63.90
23385;DHT22;11865;45.394;10.978;2023-08-08T08:35:09;25.70;66.70
23385;DHT22;11865;45.394;10.978;2023-08-08T08:37:36;25.40;65.50
23385;DHT22;11865;45.394;10.978;2023-08-08T08:40:04;26.00;69.00
23385;DHT22;11865;45.394;10.978;2023-08-08T08:42:32;26.00;69.40
23385;DHT22;11865;45.394;10.978;2023-08-08T08:45:02;25.90;68.60
23385;DHT22;11865;45.394;10.978;2023-08-08T08:47:31;25.50;69.70
23385;DHT22;11865;45.394;10.978;2023-08-08T08:49:59;25.80;70.90
23385;DHT22;11865;45.394;10.978;2023-08-08T08:52:28;25.60;70.90
23385;DHT22;11865;45.394;10.978;2023-08-08T08:54:57;25.60;70.40
23385;DHT22;11865;45.394;10.978;2023-08-08T08:57:24;25.40;71.10
23385;DHT22;11865;45.394;10.978;2023-08-08T08:59:52;25.60;71.70
23385;DHT22;11865;45.394;10.978;2023-08-08T09:02:20;25.30;71.10
23385;DHT22;11865;45.394;10.978;2023-08-08T09:04:48;25.30;71.30
23385;DHT22;11865;45.394;10.978;2023-08-08T09:07:19;25.60;72.40
23385;DHT22;11865;45.394;10.978;2023-08-08T09:09:48;25.80;71.10
23385;DHT22;11865;45.394;10.978;2023-08-08T09:12:16;26.00;69.10
23385;DHT22;11865;45.394;10.978;2023-08-08T09:14:46;26.30;71.70
23385;DHT22;11865;45.394;10.978;2023-08-08T09:17:14;26.40;72.40
23385;DHT22;11865;45.394;10.978;2023-08-08T09:19:45;26.40;73.00
23385;DHT22;11865;45.394;10.978;2023-08-08T09:22:15;25.80;72.50
23385;DHT22;11865;45.394;10.978;2023-08-08T09:24:42;25.60;72.50
23385;DHT22;11865;45.394;10.978;2023-08-08T09:27:10;25.80;73.60
23385;DHT22;11865;45.394;10.978;2023-08-08T09:29:38;25.90;72.90
23385;DHT22;11865;45.394;10.978;2023-08-08T09:32:06;25.80;71.00
23385;DHT22;11865;45.394;10.978;2023-08-08T09:34:34;25.50;72.00
23385;DHT22;11865;45.394;10.978;2023-08-08T09:37:02;25.40;70.70
23385;DHT22;11865;45.394;10.978;2023-08-08T09:39:30;25.40;71.50
23385;DHT22;11865;45.394;10.978;2023-08-08T09:41:58;25.30;71.00
23385;DHT22;11865;45.394;10.978;2023-08-08T09:44:26;25.30;69.60
23385;DHT22;11865;45.394;10.978;2023-08-08T09:46:57;25.30;70.60
23385;DHT22;11865;45.394;10.978;2023-08-08T09:49:24;25.20;71.70
23385;DHT22;11865;45.394;10.978;2023-08-08T09:51:54;25.40;71.20
23385;DHT22;11865;45.394;10.978;2023-08-08T09:54:22;25.40;71.20
23385;DHT22;11865;45.394;10.978;2023-08-08T09:56:51;26.10;72.40
23385;DHT22;11865;45.394;10.978;2023-08-08T09:59:19;26.00;69.80
23385;DHT22;11865;45.394;10.978;2023-08-08T10:01:47;25.90;71.50
23385;DHT22;11865;45.394;10.978;2023-08-08T10:04:15;25.80;70.50
23385;DHT22;11865;45.394;10.978;2023-08-08T10:06:43;25.70;70.90
23385;DHT22;11865;45.394;10.978;2023-08-08T10:09:12;25.70;69.80
23385;DHT22;11865;45.394;10.978;2023-08-08T10:11:39;25.60;69.10
23385;DHT22;11865;45.394;10.978;2023-08-08T10:14:10;25.70;71.50
23385;DHT22;11865;45.394;10.978;2023-08-08T10:16:38;26.20;70.10
23385;DHT22;11865;45.394;10.978;2023-08-08T10:19:07;26.10;67.90
23385;DHT22;11865;45.394;10.978;2023-08-08T10:21:36;26.10;68.00
23385;DHT22;11865;45.394;10.978;2023-08-08T10:24:05;25.60;66.90
23385;DHT22;11865;45.394;10.978;2023-08-08T10:26:58;25.90;69.70
23385;DHT22;11865;45.394;10.978;2023-08-08T10:29:29;25.60;69.50
23385;DHT22;11865;45.394;10.978;2023-08-08T10:32:01;25.40;69.10
23385;DHT22;11865;45.394;10.978;2023-08-08T10:34:44;25.30;68.70
23385;DHT22;11865;45.394;10.978;2023-08-08T10:37:16;25.60;70.30
23385;DHT22;11865;45.394;10.978;2023-08-08T10:40:04;25.30;67.60
23385;DHT22;11865;45.394;10.978;2023-08-08T10:42:43;25.50;68.90
23385;DHT22;11865;45.394;10.978;2023-08-08T10:45:13;25.50;69.10
23385;DHT22;11865;45.394;10.978;2023-08-08T10:47:42;25.90;68.50
23385;DHT22;11865;45.394;10.978;2023-08-08T10:50:12;26.20;70.30
23385;DHT22;11865;45.394;10.978;2023-08-08T10:55:33;26.00;68.30
23385;DHT22;11865;45.394;10.978;2023-08-08T11:00:37;25.90;69.60
23385;DHT22;11865;45.394;10.978;2023-08-08T11:03:07;25.80;68.20
23385;DHT22;11865;45.394;10.978;2023-08-08T11:05:38;25.60;67.90
23385;DHT22;11865;45.394;10.978;2023-08-08T11:08:06;25.80;70.20
23385;DHT22;11865;45.394;10.978;2023-08-08T11:10:36;26.00;69.70
23385;DHT22;11865;45.394;10.978;2023-08-08T11:13:05;25.80;68.90
23385;DHT22;11865;45.394;10.978;2023-08-08T11:15:34;25.90;69.30
23385;DHT22;11865;45.394;10.978;2023-08-08T11:18:03;25.60;69.30
23385;DHT22;11865;45.394;10.978;2023-08-08T11:20:32;25.80;67.70
23385;DHT22;11865;45.394;10.978;2023-08-08T11:23:00;26.00;70.00
23385;DHT22;11865;45.394;10.978;2023-08-08T11:25:29;25.40;68.90
23385;DHT22;11865;45.394;10.978;2023-08-08T11:27:58;25.70;70.90
23385;DHT22;11865;45.394;10.978;2023-08-08T11:30:33;25.60;70.70
23385;DHT22;11865;45.394;10.978;2023-08-08T11:33:01;25.70;72.40
23385;DHT22;11865;45.394;10.978;2023-08-08T11:35:31;25.80;70.40
23385;DHT22;11865;45.394;10.978;2023-08-08T11:38:02;26.00;72.00
23385;DHT22;11865;45.394;10.978;2023-08-08T11:40:30;26.00;70.80
23385;DHT22;11865;45.394;10.978;2023-08-08T11:42:59;26.00;70.00
23385;DHT22;11865;45.394;10.978;2023-08-08T11:45:27;26.10;70.90
23385;DHT22;11865;45.394;10.978;2023-08-08T11:47:55;25.90;70.00
23385;DHT22;11865;45.394;10.978;2023-08-08T11:50:25;25.80;71.40
23385;DHT22;11865;45.394;10.978;2023-08-08T11:52:55;26.10;71.50
23385;DHT22;11865;45.394;10.978;2023-08-08T11:55:30;26.20;70.00
23385;DHT22;11865;45.394;10.978;2023-08-08T11:57:58;26.10;69.60
23385;DHT22;11865;45.394;10.978;2023-08-08T12:00:29;25.90;69.60
23385;DHT22;11865;45.394;10.978;2023-08-08T12:03:00;26.30;71.30
23385;DHT22;11865;45.394;10.978;2023-08-08T12:05:29;26.00;69.40
23385;DHT22;11865;45.394;10.978;2023-08-08T12:07:58;26.00;68.60
23385;DHT22;11865;45.394;10.978;2023-08-08T12:10:26;25.80;68.60
23385;DHT22;11865;45.394;10.978;2023-08-08T12:12:58;25.70;66.80
23385;DHT22;11865;45.394;10.978;2023-08-08T12:15:32;25.80;69.60
23385;DHT22;11865;45.394;10.978;2023-08-08T12:18:02;25.80;69.70
23385;DHT22;11865;45.394;10.978;2023-08-08T12:20:31;26.10;71.40
23385;DHT22;11865;45.394;10.978;2023-08-08T12:22:59;26.10;69.70
23385;DHT22;11865;45.394;10.978;2023-08-08T12:25:27;26.00;68.60
23385;DHT22;11865;45.394;10.978;2023-08-08T12:27:54;26.10;67.50
23385;DHT22;11865;45.394;10.978;2023-08-08T12:30:22;26.20;64.80
23385;DHT22;11865;45.394;10.978;2023-08-08T12:32:50;26.30;68.70
23385;DHT22;11865;45.394;10.978;2023-08-08T12:35:17;26.30;67.50
23385;DHT22;11865;45.394;10.978;2023-08-08T12:37:45;26.40;66.20
23385;DHT22;11865;45.394;10.978;2023-08-08T12:40:12;26.00;66.20
23385;DHT22;11865;45.394;10.978;2023-08-08T12:42:40;26.50;67.60
23385;DHT22;11865;45.394;10.978;2023-08-08T12:45:08;26.40;65.10
23385;DHT22;11865;45.394;10.978;2023-08-08T12:47:37;26.30;67.30
23385;DHT22;11865;45.394;10.978;2023-08-08T12:50:05;26.40;66.80
23385;DHT22;11865;45.394;10.978;2023-08-08T12:52:33;26.70;62.20
23385;DHT22;11865;45.394;10.978;2023-08-08T12:55:02;26.70;63.70
23385;DHT22;11865;45.394;10.978;2023-08-08T12:57:30;26.50;66.40
23385;DHT22;11865;45.394;10.978;2023-08-08T12:59:58;26.60;66.70
23385;DHT22;11865;45.394;10.978;2023-08-08T13:02:25;26.20;65.30
23385;DHT22;11865;45.394;10.978;2023-08-08T13:04:53;26.40;66.20
23385;DHT22;11865;45.394;10.978;2023-08-08T13:07:20;26.10;63.40
23385;DHT22;11865;45.394;10.978;2023-08-08T13:09:48;26.20;67.60
23385;DHT22;11865;45.394;10.978;2023-08-08T13:12:15;26.30;65.80
23385;DHT22;11865;45.394;10.978;2023-08-08T13:14:43;26.30;64.40
23385;DHT22;11865;45.394;10.978;2023-08-08T13:17:10;26.40;63.90
23385;DHT22;11865;45.394;10.978;2023-08-08T13:19:38;26.60;64.50
23385;DHT22;11865;45.394;10.978;2023-08-08T13:22:05;26.60;61.70
23385;DHT22;11865;45.394;10.978;2023-08-08T13:24:33;26.40;61.10
23385;DHT22;11865;45.394;10.978;2023-08-08T13:27:00;26.50;65.50
23385;DHT22;11865;45.394;10.978;2023-08-08T13:29:28;26.60;65.10
23385;DHT22;11865;45.394;10.978;2023-08-08T13:31:56;27.00;62.40
23385;DHT22;11865;45.394;10.978;2023-08-08T13:34:23;27.00;64.70
23385;DHT22;11865;45.394;10.978;2023-08-08T13:36:51;27.10;63.30
23385;DHT22;11865;45.394;10.978;2023-08-08T13:39:18;27.20;62.20
23385;DHT22;11865;45.394;10.978;2023-08-08T13:41:46;27.30;67.30
23385;DHT22;11865;45.394;10.978;2023-08-08T13:44:13;27.40;65.10
23385;DHT22;11865;45.394;10.978;2023-08-08T13:46:41;27.60;69.60
23385;DHT22;11865;45.394;10.978;2023-08-08T13:49:08;27.60;62.60
23385;DHT22;11865;45.394;10.978;2023-08-08T13:51:36;27.40;63.70
23385;DHT22;11865;45.394;10.978;2023-08-08T13:54:03;27.20;64.80
23385;DHT22;11865;45.394;10.978;2023-08-08T13:56:31;27.40;66.00
23385;DHT22;11865;45.394;10.978;2023-08-08T13:58:59;27.50;64.00
23385;DHT22;11865;45.394;10.978;2023-08-08T14:01:26;27.30;59.90
23385;DHT22;11865;45.394;10.978;2023-08-08T14:03:54;27.40;64.30
23385;DHT22;11865;45.394;10.978;2023-08-08T14:06:21;27.20;61.10
23385;DHT22;11865;45.394;10.978;2023-08-08T14:08:49;27.30;61.40
23385;DHT22;11865;45.394;10.978;2023-08-08T14:11:16;27.20;63.90
23385;DHT22;11865;45.394;10.978;2023-08-08T14:13:44;27.30;66.10
23385;DHT22;11865;45.394;10.978;2023-08-08T14:16:11;27.40;62.20
23385;DHT22;11865;45.394;10.978;2023-08-08T14:18:39;27.40;61.00
23385;DHT22;11865;45.394;10.978;2023-08-08T14:21:07;27.50;62.30
23385;DHT22;11865;45.394;10.978;2023-08-08T14:23:34;27.40;62.00
23385;DHT22;11865;45.394;10.978;2023-08-08T14:26:02;27.00;59.50
23385;DHT22;11865;45.394;10.978;2023-08-08T14:28:29;27.30;60.20
23385;DHT22;11865;45.394;10.978;2023-08-08T14:30:57;27.40;60.20
23385;DHT22;11865;45.394;10.978;2023-08-08T14:33:24;27.70;60.30
23385;DHT22;11865;45.394;10.978;2023-08-08T14:35:51;28.00;63.50
23385;DHT22;11865;45.394;10.978;2023-08-08T14:38:23;28.00;61.80
23385;DHT22;11865;45.394;10.978;2023-08-08T14:40:52;27.90;61.70
23385;DHT22;11865;45.394;10.978;2023-08-08T14:43:22;27.90;62.40
23385;DHT22;11865;45.394;10.978;2023-08-08T14:45:50;27.90;61.90
23385;DHT22;11865;45.394;10.978;2023-08-08T14:48:18;27.40;59.10
23385;DHT22;11865;45.394;10.978;2023-08-08T14:50:45;27.50;59.00
23385;DHT22;11865;45.394;10.978;2023-08-08T14:53:13;27.60;62.20
23385;DHT22;11865;45.394;10.978;2023-08-08T14:55:40;27.40;60.30
23385;DHT22;11865;45.394;10.978;2023-08-08T14:58:08;27.60;62.70
23385;DHT22;11865;45.394;10.978;2023-08-08T15:00:35;27.80;60.00
23385;DHT22;11865;45.394;10.978;2023-08-08T15:03:03;27.90;59.10
23385;DHT22;11865;45.394;10.978;2023-08-08T15:05:31;27.60;63.40
23385;DHT22;11865;45.394;10.978;2023-08-08T15:07:58;27.30;63.00
23385;DHT22;11865;45.394;10.978;2023-08-08T15:10:26;27.50;63.90
23385;DHT22;11865;45.394;10.978;2023-08-08T15:12:53;27.40;61.60
23385;DHT22;11865;45.394;10.978;2023-08-08T15:15:21;27.40;63.40
23385;DHT22;11865;45.394;10.978;2023-08-08T15:17:50;27.30;63.20
23385;DHT22;11865;45.394;10.978;2023-08-08T15:20:18;27.10;61.90
23385;DHT22;11865;45.394;10.978;2023-08-08T15:22:46;27.20;64.40
23385;DHT22;11865;45.394;10.978;2023-08-08T15:25:14;27.20;66.00
23385;DHT22;11865;45.394;10.978;2023-08-08T15:27:41;27.20;65.80
23385;DHT22;11865;45.394;10.978;2023-08-08T15:30:09;27.20;67.60
23385;DHT22;11865;45.394;10.978;2023-08-08T15:32:37;27.10;65.10